createdAt,value
2022-08-21T00:01:34.024Z,3.95
2022-08-21T00:04:06.098Z,4.78
2022-08-21T00:06:33.996Z,4.82
2022-08-21T00:09:05.730Z,5.82
2022-08-21T00:11:33.490Z,5.25
2022-08-21T00:14:00.049Z,4.53
2022-08-21T00:16:26.612Z,3.55
2022-08-21T00:18:53.154Z,3.03
2022-08-21T00:21:19.642Z,3.05
2022-08-21T00:23:46.197Z,3.90
2022-08-21T00:26:12.697Z,4.07
2022-08-21T00:28:39.227Z,3.80
2022-08-21T00:31:05.855Z,4.82
2022-08-21T00:33:33.510Z,4.15
2022-08-21T00:36:00.137Z,4.70
2022-08-21T00:38:26.631Z,4.60
2022-08-21T00:40:57.269Z,4.70
2022-08-21T00:43:29.894Z,3.47
2022-08-21T00:45:56.832Z,5.20
2022-08-21T00:48:24.235Z,4.90
2022-08-21T00:50:58.149Z,5.50
2022-08-21T00:53:25.095Z,5.20
2022-08-21T00:55:52.504Z,5.30
2022-08-21T00:58:21.096Z,4.75
2022-08-21T01:00:49.894Z,4.47
2022-08-21T01:03:19.208Z,5.10
2022-08-21T01:05:50.406Z,5.05
2022-08-21T01:08:18.083Z,5.40
2022-08-21T01:10:44.950Z,6.10
2022-08-21T01:13:12.671Z,6.40
2022-08-21T01:15:43.826Z,7.28
2022-08-21T01:18:12.101Z,6.97
2022-08-21T01:20:41.745Z,6.43
2022-08-21T01:23:08.284Z,6.80
2022-08-21T01:25:35.336Z,8.10
2022-08-21T01:28:07.899Z,6.55
2022-08-21T01:30:35.960Z,6.90
2022-08-21T01:33:02.567Z,6.60
2022-08-21T01:35:29.065Z,7.18
2022-08-21T01:37:55.698Z,6.32
2022-08-21T01:40:22.651Z,8.65
2022-08-21T01:42:49.550Z,7.75
2022-08-21T01:45:16.706Z,7.10
2022-08-21T01:47:44.490Z,7.38
2022-08-21T01:50:13.500Z,6.85
2022-08-21T01:52:40.503Z,7.32
2022-08-21T01:55:11.143Z,7.18
2022-08-21T01:57:37.676Z,7.72
2022-08-21T02:00:10.816Z,7.40
2022-08-21T02:02:37.581Z,7.35
2022-08-21T02:05:05.613Z,6.38
2022-08-21T02:07:40.252Z,7.43
2022-08-21T02:10:08.672Z,6.70
2022-08-21T02:12:35.169Z,7.30
2022-08-21T02:15:02.384Z,7.95
2022-08-21T02:17:28.920Z,7.50
2022-08-21T02:19:55.427Z,7.55
2022-08-21T02:22:21.928Z,6.90
2022-08-21T02:24:50.563Z,6.68
2022-08-21T02:27:26.272Z,4.97
2022-08-21T02:29:54.662Z,7.05
2022-08-21T02:32:22.634Z,6.50
2022-08-21T02:34:49.808Z,7.20
2022-08-21T02:37:16.367Z,7.68
2022-08-21T02:39:42.906Z,6.45
2022-08-21T02:42:09.482Z,7.30
2022-08-21T02:44:35.995Z,7.25
2022-08-21T02:47:02.479Z,6.97
2022-08-21T02:49:28.987Z,6.20
2022-08-21T02:51:55.490Z,6.80
2022-08-21T02:54:22.026Z,7.50
2022-08-21T02:56:48.539Z,7.60
2022-08-21T02:59:15.045Z,6.95
2022-08-21T03:01:41.563Z,7.57
2022-08-21T03:04:08.171Z,7.80
2022-08-21T03:06:34.716Z,6.80
2022-08-21T03:09:01.347Z,7.20
2022-08-21T03:11:27.881Z,6.35
2022-08-21T03:13:54.825Z,6.75
2022-08-21T03:16:21.698Z,7.97
2022-08-21T03:18:48.340Z,6.63
2022-08-21T03:21:14.884Z,7.30
2022-08-21T03:23:42.879Z,7.20
2022-08-21T03:26:10.211Z,6.40
2022-08-21T03:28:37.352Z,6.55
2022-08-21T03:31:03.872Z,7.00
2022-08-21T03:33:30.366Z,6.82
2022-08-21T03:36:03.687Z,7.60
2022-08-21T03:38:31.648Z,6.82
2022-08-21T03:40:58.489Z,6.63
2022-08-21T03:43:25.040Z,6.82
2022-08-21T03:45:52.553Z,7.20
2022-08-21T03:48:19.272Z,7.95
2022-08-21T03:50:47.766Z,8.00
2022-08-21T03:53:17.428Z,7.95
2022-08-21T03:55:49.800Z,7.75
2022-08-21T03:58:18.704Z,7.90
2022-08-21T04:00:50.215Z,7.40
2022-08-21T04:03:17.369Z,7.78
2022-08-21T04:05:58.176Z,8.23
2022-08-21T04:08:24.789Z,8.15
2022-08-21T04:10:53.014Z,8.27
2022-08-21T04:13:19.960Z,8.38
2022-08-21T04:15:46.521Z,8.10
2022-08-21T04:18:13.031Z,7.93
2022-08-21T04:20:41.067Z,8.00
2022-08-21T04:23:07.819Z,7.82
2022-08-21T04:25:34.327Z,8.07
2022-08-21T04:28:00.811Z,8.90
2022-08-21T04:30:28.150Z,8.27
2022-08-21T04:32:57.868Z,7.60
2022-08-21T04:35:26.625Z,7.22
2022-08-21T04:37:53.250Z,7.65
2022-08-21T04:40:20.986Z,7.40
2022-08-21T04:42:54.110Z,8.30
2022-08-21T04:45:29.887Z,7.85
2022-08-21T04:47:58.859Z,7.35
2022-08-21T04:50:54.292Z,6.97
2022-08-21T04:53:38.658Z,7.60
2022-08-21T04:56:09.460Z,7.40
2022-08-21T04:58:37.638Z,7.00
2022-08-21T05:01:05.885Z,7.50
2022-08-21T05:03:34.591Z,7.47
2022-08-21T05:06:01.699Z,7.72
2022-08-21T05:08:28.686Z,7.25
2022-08-21T05:11:00.101Z,7.07
2022-08-21T05:13:27.093Z,7.80
2022-08-21T05:15:54.409Z,6.95
2022-08-21T05:18:20.937Z,7.25
2022-08-21T05:20:47.720Z,7.78
2022-08-21T05:23:15.113Z,6.63
2022-08-21T05:25:42.319Z,7.60
2022-08-21T05:28:09.015Z,6.13
2022-08-21T05:30:36.132Z,6.97
2022-08-21T05:33:04.448Z,5.88
2022-08-21T05:35:31.501Z,5.50
2022-08-21T05:37:57.994Z,6.35
2022-08-21T05:40:24.812Z,6.05
2022-08-21T05:42:56.250Z,5.60
2022-08-21T05:45:41.612Z,5.82
2022-08-21T05:48:16.078Z,4.60
2022-08-21T05:50:43.939Z,4.80
2022-08-21T05:53:10.969Z,4.68
2022-08-21T05:55:42.738Z,4.32
2022-08-21T05:58:12.183Z,4.20
2022-08-21T06:00:38.728Z,4.00
2022-08-21T06:03:05.425Z,4.00
2022-08-21T06:05:37.225Z,3.58
2022-08-21T06:08:04.562Z,3.58
2022-08-21T06:10:31.078Z,3.50
2022-08-21T06:12:57.777Z,2.80
2022-08-21T06:15:24.450Z,3.42
2022-08-21T06:17:50.949Z,3.33
2022-08-21T06:20:17.485Z,3.55
2022-08-21T06:22:43.985Z,3.15
2022-08-21T06:25:11.129Z,3.00
2022-08-21T06:27:38.273Z,2.95
2022-08-21T06:30:06.661Z,2.72
2022-08-21T06:32:33.193Z,3.08
2022-08-21T06:34:59.770Z,2.63
2022-08-21T06:37:26.263Z,3.03
2022-08-21T06:39:53.124Z,2.53
2022-08-21T06:42:19.725Z,2.90
2022-08-21T06:44:46.646Z,2.67
2022-08-21T06:47:13.139Z,2.33
2022-08-21T06:49:39.858Z,2.38
2022-08-21T06:52:11.093Z,2.30
2022-08-21T06:54:38.228Z,2.50
2022-08-21T06:57:04.824Z,2.30
2022-08-21T06:59:32.603Z,2.00
2022-08-21T07:02:00.080Z,2.00
2022-08-21T07:04:26.710Z,2.28
2022-08-21T07:06:53.217Z,2.20
2022-08-21T07:09:24.416Z,2.10
2022-08-21T07:11:53.592Z,2.03
2022-08-21T07:14:20.740Z,2.25
2022-08-21T07:16:48.154Z,2.33
2022-08-21T07:19:14.682Z,2.53
2022-08-21T07:21:41.372Z,2.40
2022-08-21T07:24:07.897Z,2.10
2022-08-21T07:26:34.446Z,2.30
2022-08-21T07:29:00.935Z,2.25
2022-08-21T07:31:29.643Z,2.58
2022-08-21T07:33:56.344Z,2.10
2022-08-21T07:36:22.927Z,2.08
2022-08-21T07:38:49.418Z,2.08
2022-08-21T07:41:26.527Z,2.33
2022-08-21T07:46:20.449Z,2.22
2022-08-21T07:48:47.121Z,2.33
2022-08-21T07:51:15.922Z,2.10
2022-08-21T07:53:42.567Z,2.20
2022-08-21T07:56:09.676Z,2.20
2022-08-21T07:58:37.923Z,2.70
2022-08-21T08:01:09.904Z,2.13
2022-08-21T08:03:37.175Z,2.38
2022-08-21T08:06:05.759Z,2.00
2022-08-21T08:08:33.089Z,2.40
2022-08-21T08:11:00.067Z,2.28
2022-08-21T08:13:26.583Z,2.38
2022-08-21T08:15:53.084Z,2.42
2022-08-21T08:18:19.679Z,2.70
2022-08-21T08:20:46.254Z,2.33
2022-08-21T08:23:14.085Z,2.30
2022-08-21T08:25:41.114Z,2.20
2022-08-21T08:28:17.056Z,2.15
2022-08-21T08:30:45.931Z,2.03
2022-08-21T08:33:12.628Z,2.05
2022-08-21T08:35:39.453Z,1.75
2022-08-21T08:38:06.468Z,2.25
2022-08-21T08:40:52.854Z,2.05
2022-08-21T08:43:19.940Z,2.00
2022-08-21T08:45:51.200Z,1.98
2022-08-21T08:48:34.566Z,2.03
2022-08-21T08:51:02.089Z,1.60
2022-08-21T08:53:34.839Z,2.40
2022-08-21T08:56:03.581Z,1.80
2022-08-21T08:58:39.878Z,1.60
2022-08-21T09:01:09.425Z,1.65
2022-08-21T09:03:37.236Z,1.55
2022-08-21T09:06:33.468Z,1.98
2022-08-21T09:09:24.699Z,1.75
2022-08-21T09:12:10.340Z,1.60
2022-08-21T09:15:03.758Z,1.48
2022-08-21T09:17:48.768Z,1.60
2022-08-21T09:20:38.247Z,1.80
2022-08-21T09:23:16.934Z,1.48
2022-08-21T09:25:50.550Z,1.80
2022-08-21T09:28:17.048Z,1.63
2022-08-21T09:30:43.696Z,1.70
2022-08-21T09:33:14.056Z,1.90
2022-08-21T09:35:55.975Z,1.80
2022-08-21T09:38:30.594Z,1.80
2022-08-21T09:41:04.496Z,1.50
2022-08-21T09:43:32.067Z,2.00
2022-08-21T09:46:10.852Z,1.60
2022-08-21T09:48:46.449Z,1.40
2022-08-21T09:51:17.532Z,1.95
2022-08-21T09:53:48.335Z,1.75
2022-08-21T09:56:46.123Z,1.90
2022-08-21T09:59:24.718Z,1.60
2022-08-21T10:01:52.580Z,1.35
2022-08-21T10:04:35.832Z,1.52
2022-08-21T10:07:14.073Z,1.80
2022-08-21T10:09:43.878Z,1.75
2022-08-21T10:12:29.592Z,1.80
2022-08-21T10:14:58.968Z,2.10
2022-08-21T10:17:40.462Z,1.90
2022-08-21T10:20:26.590Z,1.98
2022-08-21T10:23:01.918Z,1.88
2022-08-21T10:25:38.497Z,2.00
2022-08-21T10:28:27.060Z,2.22
2022-08-21T10:31:02.096Z,2.65
2022-08-21T10:34:03.287Z,1.95
2022-08-21T10:37:19.433Z,1.88
2022-08-21T10:40:17.312Z,2.38
2022-08-21T10:43:14.791Z,2.15
2022-08-21T10:46:25.360Z,2.40
2022-08-21T10:48:58.043Z,2.40
2022-08-21T10:51:34.317Z,2.25
2022-08-21T10:54:07.969Z,2.28
2022-08-21T10:56:37.658Z,2.38
2022-08-21T10:59:26.599Z,2.20
2022-08-21T11:02:00.695Z,2.35
2022-08-21T11:04:49.674Z,2.17
2022-08-21T11:07:27.397Z,2.55
2022-08-21T11:10:19.307Z,2.47
2022-08-21T11:12:51.658Z,2.97
2022-08-21T11:15:30.397Z,2.63
2022-08-21T11:18:03.689Z,2.40
2022-08-21T11:20:35.738Z,2.88
2022-08-21T11:23:09.124Z,2.40
2022-08-21T11:25:42.932Z,2.50
2022-08-21T11:30:54.454Z,3.00
2022-08-21T11:33:26.078Z,2.85
2022-08-21T11:36:00.525Z,3.58
2022-08-21T11:38:53.598Z,3.00
2022-08-21T11:41:22.915Z,3.10
2022-08-21T11:43:56.382Z,3.17
2022-08-21T11:49:16.586Z,3.05
2022-08-21T11:52:10.262Z,3.53
2022-08-21T11:55:09.573Z,3.25
2022-08-21T11:57:48.048Z,3.03
2022-08-21T12:00:21.672Z,3.35
2022-08-21T12:02:53.676Z,3.13
2022-08-21T12:05:45.462Z,3.08
2022-08-21T12:08:15.527Z,2.92
2022-08-21T12:11:10.140Z,3.03
2022-08-21T12:13:52.824Z,3.28
2022-08-21T12:16:35.789Z,2.80
2022-08-21T12:19:30.127Z,3.00
2022-08-21T12:22:15.652Z,2.80
2022-08-21T12:24:45.210Z,2.88
2022-08-21T12:27:17.874Z,3.08
2022-08-21T12:29:50.706Z,2.70
2022-08-21T12:32:17.114Z,2.88
2022-08-21T12:34:48.470Z,3.53
2022-08-21T12:37:22.971Z,3.00
2022-08-21T12:39:52.873Z,3.22
2022-08-21T12:42:56.614Z,3.22
2022-08-21T12:45:39.439Z,2.90
2022-08-21T12:48:11.869Z,3.42
2022-08-21T12:50:41.574Z,3.22
2022-08-21T12:53:20.344Z,3.35
2022-08-21T12:55:48.200Z,2.90
2022-08-21T12:58:19.895Z,3.38
2022-08-21T13:01:08.409Z,3.33
2022-08-21T13:03:36.668Z,3.13
2022-08-21T13:06:05.675Z,3.30
2022-08-21T13:08:39.502Z,3.28
2022-08-21T13:11:13.338Z,3.20
2022-08-21T13:13:44.746Z,2.83
2022-08-21T13:16:22.140Z,3.17
2022-08-21T13:18:59.604Z,2.92
2022-08-21T13:21:34.762Z,2.65
2022-08-21T13:27:19.494Z,2.75
2022-08-21T13:29:50.353Z,2.95
2022-08-21T13:32:24.854Z,2.90
2022-08-21T13:34:54.046Z,3.20
2022-08-21T13:37:22.731Z,2.90
2022-08-21T13:39:51.667Z,2.83
2022-08-21T13:42:18.547Z,2.83
2022-08-21T13:44:47.733Z,2.38
2022-08-21T13:47:16.232Z,2.70
2022-08-21T13:49:47.728Z,2.85
2022-08-21T13:52:17.444Z,2.78
2022-08-21T13:54:45.636Z,2.72
2022-08-21T13:57:20.112Z,2.60
2022-08-21T13:59:47.083Z,2.60
2022-08-21T14:02:18.160Z,2.70
2022-08-21T14:04:56.044Z,3.30
2022-08-21T14:07:30.799Z,2.72
2022-08-21T14:09:57.375Z,3.10
2022-08-21T14:12:29.700Z,3.03
2022-08-21T14:14:57.703Z,2.78
2022-08-21T14:17:34.099Z,2.55
2022-08-21T14:20:01.065Z,2.97
2022-08-21T14:22:39.121Z,2.88
2022-08-21T14:25:15.587Z,3.33
2022-08-21T14:28:05.253Z,3.03
2022-08-21T14:30:38.658Z,2.67
2022-08-21T14:33:10.069Z,2.80
2022-08-21T14:35:36.573Z,2.72
2022-08-21T14:38:03.152Z,2.22
2022-08-21T14:40:29.726Z,2.40
2022-08-21T14:42:56.286Z,2.33
2022-08-21T14:45:30.444Z,2.03
2022-08-21T14:47:58.439Z,2.25
2022-08-21T14:50:28.210Z,2.40
2022-08-21T14:52:55.002Z,2.13
2022-08-21T14:55:21.579Z,2.22
2022-08-21T14:57:53.245Z,2.03
2022-08-21T15:00:26.978Z,2.42
2022-08-21T15:03:02.050Z,2.90
2022-08-21T15:05:33.030Z,2.28
2022-08-21T15:08:00.429Z,2.25
2022-08-21T15:10:26.967Z,2.58
2022-08-21T15:12:53.463Z,2.47
2022-08-21T15:15:20.141Z,2.72
2022-08-21T15:17:48.494Z,2.95
2022-08-21T15:20:15.390Z,2.70
2022-08-21T15:22:47.733Z,2.78
2022-08-21T15:25:24.434Z,3.28
2022-08-21T15:27:51.269Z,2.70
2022-08-21T15:30:17.925Z,2.72
2022-08-21T15:32:44.426Z,2.35
2022-08-21T15:35:11.222Z,2.63
2022-08-21T15:37:37.744Z,2.10
2022-08-21T15:40:06.738Z,2.28
2022-08-21T15:42:33.657Z,2.25
2022-08-21T15:45:00.311Z,2.30
2022-08-21T15:47:37.776Z,2.30
2022-08-21T15:50:06.977Z,2.50
2022-08-21T15:52:34.223Z,2.25
2022-08-21T15:55:00.776Z,2.10
2022-08-21T15:57:27.902Z,2.47
2022-08-21T16:00:04.216Z,2.40
2022-08-21T16:02:32.226Z,2.58
2022-08-21T16:04:59.108Z,2.10
2022-08-21T16:07:25.697Z,2.70
2022-08-21T16:09:52.293Z,2.22
2022-08-21T16:12:28.232Z,2.58
2022-08-21T16:14:55.501Z,2.28
2022-08-21T16:17:28.976Z,2.45
2022-08-21T16:22:22.210Z,2.65
2022-08-21T16:24:48.760Z,2.28
2022-08-21T16:27:17.393Z,2.60
2022-08-21T16:29:44.120Z,2.55
2022-08-21T16:32:10.853Z,2.20
2022-08-21T16:34:40.684Z,2.25
2022-08-21T16:37:07.725Z,2.30
2022-08-21T16:39:34.251Z,2.10
2022-08-21T16:42:00.786Z,2.17
2022-08-21T16:44:27.398Z,2.50
2022-08-21T16:46:58.227Z,2.13
2022-08-21T16:49:24.745Z,2.58
2022-08-21T16:51:51.240Z,2.38
2022-08-21T16:54:18.732Z,2.13
2022-08-21T16:56:47.984Z,2.75
2022-08-21T16:59:14.830Z,2.20
2022-08-21T17:01:44.489Z,2.50
2022-08-21T17:04:11.004Z,2.53
2022-08-21T17:06:37.865Z,2.60
2022-08-21T17:09:04.595Z,2.50
2022-08-21T17:11:47.626Z,2.40
2022-08-21T17:14:19.545Z,2.13
2022-08-21T17:16:48.856Z,2.47
2022-08-21T17:19:16.047Z,2.67
2022-08-21T17:21:42.706Z,2.20
2022-08-21T17:24:09.581Z,2.40
2022-08-21T17:26:37.510Z,2.38
2022-08-21T17:29:09.608Z,2.65
2022-08-21T17:31:37.657Z,2.28
2022-08-21T17:34:06.014Z,2.45
2022-08-21T17:36:33.013Z,2.08
2022-08-21T17:38:59.517Z,2.60
2022-08-21T17:41:26.185Z,2.42
2022-08-21T17:43:54.922Z,2.58
2022-08-21T17:46:24.255Z,2.80
2022-08-21T17:48:50.859Z,2.38
2022-08-21T17:51:17.765Z,2.15
2022-08-21T17:53:45.025Z,2.38
2022-08-21T17:56:14.281Z,2.00
2022-08-21T17:58:47.417Z,2.72
2022-08-21T18:01:14.345Z,2.47
2022-08-21T18:03:40.876Z,2.20
2022-08-21T18:06:07.417Z,2.20
2022-08-21T18:08:34.647Z,2.55
2022-08-21T18:11:01.402Z,2.80
2022-08-21T18:13:34.555Z,2.33
2022-08-21T18:16:01.679Z,2.80
2022-08-21T18:18:32.963Z,2.42
2022-08-21T18:20:59.622Z,3.13
2022-08-21T18:23:43.352Z,2.70
2022-08-21T18:26:13.364Z,2.25
2022-08-21T18:28:40.660Z,2.60
2022-08-21T18:31:09.578Z,3.20
2022-08-21T18:33:37.410Z,2.78
2022-08-21T18:36:04.815Z,2.80
2022-08-21T18:38:31.417Z,2.80
2022-08-21T18:40:59.597Z,2.38
2022-08-21T18:43:26.574Z,2.50
2022-08-21T18:45:53.161Z,2.63
2022-08-21T18:48:20.595Z,2.97
2022-08-21T18:50:48.127Z,2.83
2022-08-21T18:53:24.095Z,2.67
2022-08-21T18:55:56.942Z,2.70
2022-08-21T18:58:24.642Z,2.40
2022-08-21T19:00:52.446Z,2.90
2022-08-21T19:03:23.762Z,3.00
2022-08-21T19:08:56.064Z,2.65
2022-08-21T19:11:24.483Z,2.60
2022-08-21T19:13:52.991Z,3.10
2022-08-21T19:16:21.305Z,2.70
2022-08-21T19:18:47.913Z,3.22
2022-08-21T19:21:14.431Z,2.40
2022-08-21T19:23:42.427Z,2.70
2022-08-21T19:26:11.019Z,2.83
2022-08-21T19:28:40.178Z,2.97
2022-08-21T19:31:13.500Z,2.63
2022-08-21T19:33:50.860Z,2.50
2022-08-21T19:36:17.926Z,2.55
2022-08-21T19:38:45.853Z,3.22
2022-08-21T19:41:14.905Z,2.60
2022-08-21T19:43:45.656Z,2.72
2022-08-21T19:46:15.993Z,2.38
2022-08-21T19:48:46.831Z,3.40
2022-08-21T19:51:14.438Z,2.75
2022-08-21T19:53:41.021Z,2.92
2022-08-21T19:56:09.344Z,2.33
2022-08-21T19:58:42.616Z,3.13
2022-08-21T20:03:57.382Z,2.92
2022-08-21T20:06:26.777Z,3.20
2022-08-21T20:08:55.126Z,3.20
2022-08-21T20:11:34.864Z,3.20
2022-08-21T20:14:01.664Z,3.03
2022-08-21T20:16:28.767Z,3.25
2022-08-21T20:18:55.345Z,2.90
2022-08-21T20:21:21.962Z,2.83
2022-08-21T20:23:52.729Z,2.67
2022-08-21T20:26:19.562Z,2.50
2022-08-21T20:28:50.526Z,2.70
2022-08-21T20:31:20.539Z,2.88
2022-08-21T20:33:49.559Z,3.10
2022-08-21T20:36:17.161Z,3.00
2022-08-21T20:38:44.093Z,2.70
2022-08-21T20:44:07.722Z,2.05
2022-08-21T20:46:39.330Z,2.00
2022-08-21T20:49:08.140Z,2.33
2022-08-21T20:51:47.672Z,2.25
2022-08-21T20:54:22.086Z,2.30
2022-08-21T20:56:55.753Z,2.47
2022-08-21T21:02:23.239Z,2.70
2022-08-21T21:04:52.994Z,2.42
2022-08-21T21:07:45.378Z,1.92
2022-08-21T21:10:18.507Z,1.90
2022-08-21T21:12:51.271Z,2.10
2022-08-21T21:15:27.929Z,2.17
2022-08-21T21:18:05.391Z,2.47
2022-08-21T21:20:45.850Z,2.50
2022-08-21T21:23:37.097Z,2.30
2022-08-21T21:26:14.357Z,2.20
2022-08-21T21:28:50.965Z,2.20
2022-08-21T21:31:17.979Z,2.35
2022-08-21T21:33:46.184Z,2.10
2022-08-21T21:36:30.161Z,2.10
2022-08-21T21:39:16.691Z,2.40
2022-08-21T21:41:54.632Z,1.90
2022-08-21T21:44:45.654Z,1.98
2022-08-21T21:47:16.907Z,2.38
2022-08-21T21:53:12.636Z,2.25
2022-08-21T21:56:03.578Z,2.80
2022-08-21T21:58:39.316Z,3.10
2022-08-21T22:01:37.951Z,2.72
2022-08-21T22:04:09.453Z,2.90
2022-08-21T22:06:52.412Z,2.70
2022-08-21T22:09:36.014Z,2.47
2022-08-21T22:12:29.364Z,2.97
2022-08-21T22:14:56.141Z,2.63
2022-08-21T22:17:49.480Z,2.25
2022-08-21T22:20:27.388Z,1.40
2022-08-21T22:22:55.863Z,1.52
2022-08-21T22:25:31.739Z,3.35
2022-08-21T22:28:04.713Z,1.67
2022-08-21T22:30:45.339Z,1.60
2022-08-21T22:33:20.128Z,1.58
2022-08-21T22:35:51.596Z,2.03
2022-08-21T22:38:30.189Z,1.27
2022-08-21T22:41:27.979Z,3.33
2022-08-21T22:44:11.994Z,2.20
2022-08-21T22:49:25.184Z,2.17
2022-08-21T22:51:56.389Z,2.13
2022-08-21T22:54:43.416Z,1.90
2022-08-21T22:57:27.129Z,1.92
2022-08-21T22:59:56.529Z,1.83
2022-08-21T23:02:39.355Z,2.10
2022-08-21T23:05:27.096Z,2.33
2022-08-21T23:08:00.440Z,2.60
2022-08-21T23:10:28.645Z,2.35
2022-08-21T23:13:09.389Z,2.75
2022-08-21T23:16:02.666Z,2.95
2022-08-21T23:18:54.479Z,3.40
2022-08-21T23:21:40.761Z,3.60
2022-08-21T23:24:22.778Z,2.90
2022-08-21T23:27:23.691Z,3.30
2022-08-21T23:29:56.025Z,3.30
2022-08-21T23:32:35.706Z,2.90
2022-08-21T23:35:15.950Z,2.92
2022-08-21T23:37:51.449Z,3.70
2022-08-21T23:40:36.091Z,3.65
2022-08-21T23:43:19.562Z,3.33
2022-08-21T23:48:50.191Z,4.40
2022-08-21T23:51:38.526Z,3.75
2022-08-21T23:54:17.885Z,2.95
2022-08-21T23:56:54.968Z,3.20
2022-08-21T23:59:33.639Z,3.30
